logo
Rechercher aéroport 
image banner adimage banner adimage banner ad
image banner ad

OEUD - Udhailiyah

Situé à , Saudi Arabia

ICAO - OEUD, IATA -

Données fournies par Airmate  

Information générale

Coordonnées: N25°8'42" E49°19'42"
Élévation : 772 feet MSL.
 
Voir autres Aéroports à Ash Sharqiyah

Données opérationnelles

Special qualification required
Heure actuelle UTC:
Heure actuelle locale:
Météo à : OEAH - Al Ahsa ( 22 km )
METAR: OEAH 251600Z 33012KT CAVOK 42/01 Q0994 NOSIG
TAF: TAF OEAH 251000Z 2512/2618 35016KT CAVOK BECMG 2518/2520 VRB03KT BECMG 2604/2606 34012KT
Voir NOTAMs / SUP AIP / TFR affectant cet aéroport [VIEW]
Fréquences de communication: [VIEW]

Pistes:

Identifiant RWYQFULongueur (ft)Largeur (ft)SurfaceLDA (ft)
18178°718298ASP
36358°718298ASP

Coordonnées de l'aéroport

Adresse: Saudi Arabia

Vue satellite de OEUD